[vc_row][vc_column width=”2/3″]

Nesenie raksti

Ziņas

[/vc_column][vc_column width=”1/3″ el_class=”sticky-column”]

Par Gliding.lv

[vc_column_text]Gliding.lv ir interneta vietne par planieriem un planierismu. Šeit būs atrodama informācija par iespējām pamēģināt, iesaistīties un organizēt planierisma aktivitātes. Izmanto Gliding.lv forumu, ja Tev ir kāda tēma diskusijai vai jautājums. Gliding.lv merķis ir informēt un apvienot planierisma interesentus, nodrošinot un apmainoties ar aktuālāko un arī bijušo. Lidojam![/vc_column_text][vc_column_text]
[/vc_column_text]

METAR

EVRA 280720Z 33014KT 300V360 7000 -RASN OVC004 01/00 Q0993 RESN RERA TEMPO 3000

EVLA 280720Z AUTO 35014G26KT 310V030 9999 -RA FEW010/// SCT016/// OVC031/// 02/M00 Q1000

EVVA 280720Z AUTO 36020KT 6000 SCT012 OVC018 02/01 Q1000

Nesenie raksti

[/vc_column][/vc_row]

Pāriet uz rīkjoslu